Hlavní strana
METAR-TAF:

METAR-TAF

Letiště :

Damašek, Sýrie

zeměpisná šířka: 33-25N, zeměpisná délka: 036-31E, výška: 608 m

Aktuální stav počasí

Zpráva byla vytvořena před 15 minutami, v 12:00 UTC
Východojihovýchodní vítr 5 kt
Teplota 24°C
Vlhkost vzduchu 38%
Tlak 1017 hPa
Viditelnost 10 km a více
Oblačno až skoro zataženo ve výšce 3000 ft

METAR: OSDI 151200Z 12005KT 9999 BKN030 24/09 Q1017

Čas: 14:15 (12:15 UTC)

Předpověď počasí

Předpověď platná od 15 v 12 UTC do 16 v 18 UTC
Jihojihozápadní vítr 12 kt
Viditelnost: 8000 m
Skoro jasno ve výšce 3000 ft
Polojasno ve výšce 10000 ft
Dočasný
od 15 v 12 UTC do 16 v 18 UTC
Západojihozápadní vítr 15 kt s nárazy do 25 kt
Viditelnost: 5000 m
Skoro jasno ve výšce 2500 ft
Oblačno až skoro zataženo ve výšce 3000 ft
Zataženo ve výšce 10000 ft
dešťové přeháňky

TAF: OSDI 1512/1618 20012KT 8000 FEW030 SCT100 TEMPO 1512/1618 24015G25KT 5000 SHRA FEW025 CB BKN030 OVC100

Stav a předpovědi počasí z více než 4 000 letišť (zprávy METAR a TAF).

Červené a žluté tečky na mapě představují dostupné meteorologické stanice.

Když kurzor umístíte na tečku, zobrazí se název stanice.

Pak kliknutím zobrazíte stav a předpověď počasí.

Chcete-li změnit mapu, kliknutím na zelené tlačítko se znaménkem +mapu přiblížíte, kliknutím na zelené tlačítko se znaménkem – mapu oddálíte a kliknutím na zelené šipky přejdete na sousední mapy.


METAR-TAF: